Brad Bennink — WDD4338 — position and weather

sailwx.info

Track history (hours):
 
Tides and Currents Weather Stations Pressure Air Temp Water Temp Dewpoint Dewpoint Depression Visibility Wind Speed Wind Dir Waves Ship Positions

Brad Bennink

Owner: American Commercial Lines LLC, Jeffersonville, IN. More information available from US FCC via Universal Licensing System and Coast Guard Vessel Documentation Center.

Last reported at 2017-Jul-21 05:43 UTC. Time now 2017-Jul-26 08:52 UTC.
Position N 41°12' W 091°04'.

Length 39 m; draft 2.9 m.

Type: Towing. MMSI: 367143450.

Date/timePositionNaut miles runAvg speedWind from/ knotsBaromVisibWave heightAir tempDewpointWater temp
2017-Jul-21 05:43N 41°12' W 091°04'0 2.2
2017-Jul-21 05:30N 41°12' W 091°03'1 0.8
2017-Jul-21 04:05N 41°10' W 091°03'0 4.3
2017-Jul-21 04:00N 41°10' W 091°03'2 4.2
2017-Jul-21 03:30N 41°10' W 090°60'2 4.3
2017-Jul-21 03:00N 41°08' W 090°58'0 0.5
2017-Jul-21 02:30N 41°08' W 090°58'1 2.7
2017-Jul-21 02:00N 41°07' W 090°57'2 4.3
2017-Jul-21 01:30N 41°05' W 090°57'2 4.7
2017-Jul-21 01:00N 41°02' W 090°56'0 0.6
2017-Jul-21 00:30N 41°02' W 090°56'2 3.2
2017-Jul-21 00:00N 41°00' W 090°57'2 4.5
2017-Jul-20 23:30N 40°58' W 090°57'2 4.3
2017-Jul-20 23:00N 40°56' W 090°58'2 4.3
2017-Jul-20 22:30N 40°55' W 090°60'2 3.2
2017-Jul-20 22:00N 40°53' W 091°01'0 0.4
2017-Jul-20 21:30N 40°53' W 091°01'0 0.8
2017-Jul-20 21:00N 40°53' W 091°01'0 0.2
2017-Jul-20 20:30N 40°53' W 091°02'0 0.1
2017-Jul-20 20:00N 40°53' W 091°02'1 1.2
2017-Jul-20 19:30N 40°52' W 091°02'1 1.2
2017-Jul-20 19:00N 40°52' W 091°03'0 0.0
2017-Jul-20 18:30N 40°52' W 091°03'1 2.3
2017-Jul-20 18:00N 40°51' W 091°03'2 4.7
2017-Jul-20 17:30N 40°49' W 091°06'1 1.8
2017-Jul-20 17:00N 40°48' W 091°06'0 0.2
2017-Jul-20 16:30N 40°49' W 091°06'1 2.6
2017-Jul-20 16:00N 40°47' W 091°06'  
2017-Jul-13 21:18N 40°43' W 091°07'2 5.3
2017-Jul-13 20:57N 40°44' W 091°07'2 5.4
2017-Jul-13 20:30N 40°47' W 091°06'3 6.4
2017-Jul-13 19:59N 40°50' W 091°05'3 5.7
2017-Jul-13 19:30N 40°52' W 091°03'1 2.5
2017-Jul-13 19:00N 40°53' W 091°01'0 0.2
2017-Jul-13 18:30N 40°53' W 091°01'0 0.0
2017-Jul-13 18:00N 40°53' W 091°01'0 0.6
2017-Jul-13 17:30N 40°53' W 091°01'2 5.0
2017-Jul-13 17:01N 40°55' W 090°59'3 5.6
2017-Jul-13 16:30N 40°58' W 090°57'3 5.7
2017-Jul-13 16:00N 41°00' W 090°57'3 5.8
2017-Jul-13 15:30N 41°03' W 090°57'3 6.0
2017-Jul-13 15:00N 41°06' W 090°57'  
Track history (hours):
 
Tides and Currents Weather Stations Pressure Air Temp Water Temp Dewpoint Dewpoint Depression Visibility Wind Speed Wind Dir Waves Ship Positions

Brad Bennink

Owner: American Commercial Lines LLC, Jeffersonville, IN. More information available from US FCC via Universal Licensing System and Coast Guard Vessel Documentation Center.

Last reported at 2017-Jul-21 05:43 UTC. Time now 2017-Jul-26 08:52 UTC.
Position N 41°12' W 091°04'.

Length 39 m; draft 2.9 m.

Type: Towing. MMSI: 367143450.

Date/timePositionNaut miles runAvg speedWind from/ knotsBaromVisibWave heightAir tempDewpointWater temp
2017-Jul-21 05:43N 41°12' W 091°04'0 2.2
2017-Jul-21 05:30N 41°12' W 091°03'1 0.8
2017-Jul-21 04:05N 41°10' W 091°03'0 4.3
2017-Jul-21 04:00N 41°10' W 091°03'2 4.2
2017-Jul-21 03:30N 41°10' W 090°60'2 4.3
2017-Jul-21 03:00N 41°08' W 090°58'0 0.5
2017-Jul-21 02:30N 41°08' W 090°58'1 2.7
2017-Jul-21 02:00N 41°07' W 090°57'2 4.3
2017-Jul-21 01:30N 41°05' W 090°57'2 4.7
2017-Jul-21 01:00N 41°02' W 090°56'0 0.6
2017-Jul-21 00:30N 41°02' W 090°56'2 3.2
2017-Jul-21 00:00N 41°00' W 090°57'2 4.5
2017-Jul-20 23:30N 40°58' W 090°57'2 4.3
2017-Jul-20 23:00N 40°56' W 090°58'2 4.3
2017-Jul-20 22:30N 40°55' W 090°60'2 3.2
2017-Jul-20 22:00N 40°53' W 091°01'0 0.4
2017-Jul-20 21:30N 40°53' W 091°01'0 0.8
2017-Jul-20 21:00N 40°53' W 091°01'0 0.2
2017-Jul-20 20:30N 40°53' W 091°02'0 0.1
2017-Jul-20 20:00N 40°53' W 091°02'1 1.2
2017-Jul-20 19:30N 40°52' W 091°02'1 1.2
2017-Jul-20 19:00N 40°52' W 091°03'0 0.0
2017-Jul-20 18:30N 40°52' W 091°03'1 2.3
2017-Jul-20 18:00N 40°51' W 091°03'2 4.7
2017-Jul-20 17:30N 40°49' W 091°06'1 1.8
2017-Jul-20 17:00N 40°48' W 091°06'0 0.2
2017-Jul-20 16:30N 40°49' W 091°06'1 2.6
2017-Jul-20 16:00N 40°47' W 091°06'  
2017-Jul-13 21:18N 40°43' W 091°07'2 5.3
2017-Jul-13 20:57N 40°44' W 091°07'2 5.4
2017-Jul-13 20:30N 40°47' W 091°06'3 6.4
2017-Jul-13 19:59N 40°50' W 091°05'3 5.7
2017-Jul-13 19:30N 40°52' W 091°03'1 2.5
2017-Jul-13 19:00N 40°53' W 091°01'0 0.2
2017-Jul-13 18:30N 40°53' W 091°01'0 0.0
2017-Jul-13 18:00N 40°53' W 091°01'0 0.6
2017-Jul-13 17:30N 40°53' W 091°01'2 5.0
2017-Jul-13 17:01N 40°55' W 090°59'3 5.6
2017-Jul-13 16:30N 40°58' W 090°57'3 5.7
2017-Jul-13 16:00N 41°00' W 090°57'3 5.8
2017-Jul-13 15:30N 41°03' W 090°57'3 6.0
2017-Jul-13 15:00N 41°06' W 090°57'  

Dump ship's entire track history